sensor_id;sensor_type;location;lat;lon;timestamp;P1;durP1;ratioP1;P2;durP2;ratioP2
69736;SDS011;64476;55.004;73.342;2022-12-05T00:04:46;101.97;;;38.97;;
69736;SDS011;64476;55.004;73.342;2022-12-05T00:07:58;91.90;;;37.20;;
69736;SDS011;64476;55.004;73.342;2022-12-05T00:11:14;115.15;;;41.75;;
69736;SDS011;64476;55.004;73.342;2022-12-05T00:14:17;125.43;;;45.55;;
69736;SDS011;64476;55.004;73.342;2022-12-05T00:17:25;147.23;;;51.40;;
69736;SDS011;64476;55.004;73.342;2022-12-05T00:20:27;111.40;;;41.40;;
69736;SDS011;64476;55.004;73.342;2022-12-05T00:23:33;95.95;;;38.25;;
69736;SDS011;64476;55.004;73.342;2022-12-05T00:26:35;118.05;;;39.60;;
69736;SDS011;64476;55.004;73.342;2022-12-05T00:29:37;110.38;;;39.78;;
69736;SDS011;64476;55.004;73.342;2022-12-05T00:32:39;112.07;;;39.03;;
69736;SDS011;64476;55.004;73.342;2022-12-05T00:35:44;100.38;;;38.22;;
69736;SDS011;64476;55.004;73.342;2022-12-05T00:38:50;97.43;;;34.75;;
69736;SDS011;64476;55.004;73.342;2022-12-05T00:41:55;106.07;;;39.25;;
69736;SDS011;64476;55.004;73.342;2022-12-05T00:44:57;126.55;;;41.03;;
69736;SDS011;64476;55.004;73.342;2022-12-05T00:47:58;117.43;;;39.38;;
69736;SDS011;64476;55.004;73.342;2022-12-05T00:51:06;127.05;;;44.13;;
69736;SDS011;64476;55.004;73.342;2022-12-05T00:54:22;125.25;;;42.05;;
69736;SDS011;64476;55.004;73.342;2022-12-05T00:57:24;128.07;;;45.60;;
69736;SDS011;64476;55.004;73.342;2022-12-05T01:00:30;136.57;;;48.08;;
69736;SDS011;64476;55.004;73.342;2022-12-05T01:03:35;155.07;;;53.95;;
69736;SDS011;64476;55.004;73.342;2022-12-05T01:06:38;206.85;;;63.97;;
69736;SDS011;64476;55.004;73.342;2022-12-05T01:09:41;187.90;;;55.73;;
69736;SDS011;64476;55.004;73.342;2022-12-05T01:12:44;137.10;;;51.45;;
69736;SDS011;64476;55.004;73.342;2022-12-05T01:15:46;150.37;;;51.73;;
69736;SDS011;64476;55.004;73.342;2022-12-05T01:18:54;186.98;;;65.95;;
69736;SDS011;64476;55.004;73.342;2022-12-05T01:21:57;236.73;;;71.40;;
69736;SDS011;64476;55.004;73.342;2022-12-05T01:24:59;261.20;;;73.47;;
69736;SDS011;64476;55.004;73.342;2022-12-05T01:28:03;191.55;;;60.50;;
69736;SDS011;64476;55.004;73.342;2022-12-05T01:31:06;175.25;;;57.05;;
69736;SDS011;64476;55.004;73.342;2022-12-05T01:37:21;188.68;;;46.25;;
69736;SDS011;64476;55.004;73.342;2022-12-05T01:40:22;124.20;;;45.22;;
69736;SDS011;64476;55.004;73.342;2022-12-05T01:43:24;143.98;;;47.28;;
69736;SDS011;64476;55.004;73.342;2022-12-05T01:46:32;158.10;;;45.78;;
69736;SDS011;64476;55.004;73.342;2022-12-05T01:49:40;196.45;;;52.97;;
69736;SDS011;64476;55.004;73.342;2022-12-05T01:52:43;133.80;;;47.47;;
69736;SDS011;64476;55.004;73.342;2022-12-05T01:55:51;148.52;;;47.53;;
69736;SDS011;64476;55.004;73.342;2022-12-05T01:59:06;115.00;;;46.50;;
69736;SDS011;64476;55.004;73.342;2022-12-05T02:02:28;139.82;;;45.13;;
69736;SDS011;64476;55.004;73.342;2022-12-05T02:05:33;114.05;;;46.90;;
69736;SDS011;64476;55.004;73.342;2022-12-05T02:08:36;145.68;;;50.33;;
69736;SDS011;64476;55.004;73.342;2022-12-05T02:18:36;114.43;;;43.75;;
69736;SDS011;64476;55.004;73.342;2022-12-05T02:29:03;150.73;;;54.22;;
69736;SDS011;64476;55.004;73.342;2022-12-05T02:35:40;165.02;;;57.83;;
69736;SDS011;64476;55.004;73.342;2022-12-05T02:42:00;158.30;;;54.97;;
69736;SDS011;64476;55.004;73.342;2022-12-05T02:45:09;170.63;;;57.17;;
69736;SDS011;64476;55.004;73.342;2022-12-05T02:48:15;151.40;;;56.90;;
69736;SDS011;64476;55.004;73.342;2022-12-05T02:51:20;203.23;;;70.03;;
69736;SDS011;64476;55.004;73.342;2022-12-05T02:57:30;194.88;;;62.10;;
69736;SDS011;64476;55.004;73.342;2022-12-05T03:00:46;172.40;;;67.10;;
69736;SDS011;64476;55.004;73.342;2022-12-05T03:03:50;196.13;;;74.22;;
69736;SDS011;64476;55.004;73.342;2022-12-05T03:06:53;263.30;;;99.95;;
69736;SDS011;64476;55.004;73.342;2022-12-05T03:09:59;266.90;;;102.10;;
69736;SDS011;64476;55.004;73.342;2022-12-05T03:13:06;248.90;;;98.75;;
69736;SDS011;64476;55.004;73.342;2022-12-05T03:16:20;276.33;;;100.70;;
69736;SDS011;64476;55.004;73.342;2022-12-05T03:20:06;298.75;;;96.78;;
69736;SDS011;64476;55.004;73.342;2022-12-05T03:29:55;236.50;;;87.30;;
69736;SDS011;64476;55.004;73.342;2022-12-05T03:33:01;279.95;;;92.50;;
69736;SDS011;64476;55.004;73.342;2022-12-05T03:36:38;230.93;;;80.45;;
69736;SDS011;64476;55.004;73.342;2022-12-05T03:39:53;241.05;;;92.05;;
69736;SDS011;64476;55.004;73.342;2022-12-05T03:43:16;235.48;;;87.85;;
69736;SDS011;64476;55.004;73.342;2022-12-05T03:47:00;209.57;;;77.22;;
69736;SDS011;64476;55.004;73.342;2022-12-05T03:50:17;212.25;;;81.75;;
69736;SDS011;64476;55.004;73.342;2022-12-05T03:56:43;201.57;;;79.35;;
69736;SDS011;64476;55.004;73.342;2022-12-05T04:06:48;216.90;;;81.95;;
69736;SDS011;64476;55.004;73.342;2022-12-05T04:09:56;180.95;;;73.90;;
69736;SDS011;64476;55.004;73.342;2022-12-05T04:13:02;197.32;;;75.10;;
69736;SDS011;64476;55.004;73.342;2022-12-05T04:16:23;203.07;;;77.97;;
69736;SDS011;64476;55.004;73.342;2022-12-05T04:23:36;200.10;;;79.57;;
69736;SDS011;64476;55.004;73.342;2022-12-05T04:26:40;198.25;;;74.10;;
69736;SDS011;64476;55.004;73.342;2022-12-05T04:30:00;223.35;;;76.40;;
69736;SDS011;64476;55.004;73.342;2022-12-05T04:36:32;187.57;;;70.55;;
69736;SDS011;64476;55.004;73.342;2022-12-05T04:40:00;186.85;;;71.63;;
69736;SDS011;64476;55.004;73.342;2022-12-05T04:43:07;217.32;;;82.45;;
69736;SDS011;64476;55.004;73.342;2022-12-05T04:46:12;213.97;;;83.57;;
69736;SDS011;64476;55.004;73.342;2022-12-05T04:49:18;253.45;;;89.63;;
69736;SDS011;64476;55.004;73.342;2022-12-05T04:52:28;304.50;;;113.15;;
69736;SDS011;64476;55.004;73.342;2022-12-05T04:55:33;236.05;;;90.50;;
69736;SDS011;64476;55.004;73.342;2022-12-05T04:58:37;260.02;;;97.28;;
69736;SDS011;64476;55.004;73.342;2022-12-05T05:02:06;235.93;;;83.47;;
69736;SDS011;64476;55.004;73.342;2022-12-05T05:05:10;256.52;;;88.97;;
69736;SDS011;64476;55.004;73.342;2022-12-05T05:08:27;231.57;;;90.38;;
69736;SDS011;64476;55.004;73.342;2022-12-05T05:11:31;216.07;;;85.35;;
69736;SDS011;64476;55.004;73.342;2022-12-05T05:14:42;226.30;;;80.15;;
69736;SDS011;64476;55.004;73.342;2022-12-05T05:17:44;218.80;;;80.28;;
69736;SDS011;64476;55.004;73.342;2022-12-05T05:20:46;207.82;;;79.80;;
69736;SDS011;64476;55.004;73.342;2022-12-05T05:23:50;219.73;;;81.47;;
69736;SDS011;64476;55.004;73.342;2022-12-05T05:26:52;254.40;;;96.05;;
69736;SDS011;64476;55.004;73.342;2022-12-05T05:29:54;240.70;;;94.95;;
69736;SDS011;64476;55.004;73.342;2022-12-05T05:32:57;266.13;;;97.30;;
69736;SDS011;64476;55.004;73.342;2022-12-05T05:36:07;245.07;;;94.80;;
69736;SDS011;64476;55.004;73.342;2022-12-05T05:39:13;226.55;;;96.88;;
69736;SDS011;64476;55.004;73.342;2022-12-05T05:42:15;235.85;;;94.07;;
69736;SDS011;64476;55.004;73.342;2022-12-05T05:45:16;260.50;;;105.60;;
69736;SDS011;64476;55.004;73.342;2022-12-05T05:48:28;347.60;;;119.85;;
69736;SDS011;64476;55.004;73.342;2022-12-05T05:51:31;351.63;;;125.05;;
69736;SDS011;64476;55.004;73.342;2022-12-05T05:54:33;352.37;;;120.43;;
69736;SDS011;64476;55.004;73.342;2022-12-05T05:57:39;312.63;;;119.07;;
69736;SDS011;64476;55.004;73.342;2022-12-05T06:00:47;288.48;;;108.50;;
69736;SDS011;64476;55.004;73.342;2022-12-05T06:03:49;292.35;;;112.25;;
69736;SDS011;64476;55.004;73.342;2022-12-05T06:06:51;325.45;;;115.32;;
69736;SDS011;64476;55.004;73.342;2022-12-05T06:09:52;308.92;;;114.65;;
69736;SDS011;64476;55.004;73.342;2022-12-05T06:12:55;314.92;;;125.78;;
69736;SDS011;64476;55.004;73.342;2022-12-05T06:16:05;319.30;;;120.65;;
69736;SDS011;64476;55.004;73.342;2022-12-05T06:19:08;357.55;;;127.07;;
69736;SDS011;64476;55.004;73.342;2022-12-05T06:22:20;306.45;;;119.25;;
69736;SDS011;64476;55.004;73.342;2022-12-05T06:25:31;325.75;;;124.95;;
69736;SDS011;64476;55.004;73.342;2022-12-05T06:28:32;301.98;;;119.15;;
69736;SDS011;64476;55.004;73.342;2022-12-05T06:31:39;290.02;;;120.50;;
69736;SDS011;64476;55.004;73.342;2022-12-05T06:34:42;305.88;;;118.10;;
69736;SDS011;64476;55.004;73.342;2022-12-05T06:37:43;345.88;;;120.28;;
69736;SDS011;64476;55.004;73.342;2022-12-05T06:40:45;280.23;;;116.03;;
69736;SDS011;64476;55.004;73.342;2022-12-05T06:43:53;310.42;;;119.40;;
69736;SDS011;64476;55.004;73.342;2022-12-05T06:46:56;310.05;;;116.72;;
69736;SDS011;64476;55.004;73.342;2022-12-05T06:50:02;283.88;;;115.53;;
69736;SDS011;64476;55.004;73.342;2022-12-05T06:53:04;289.15;;;111.40;;
69736;SDS011;64476;55.004;73.342;2022-12-05T06:56:17;276.43;;;114.70;;
69736;SDS011;64476;55.004;73.342;2022-12-05T06:59:19;272.23;;;113.43;;
69736;SDS011;64476;55.004;73.342;2022-12-05T07:02:41;303.58;;;113.03;;
69736;SDS011;64476;55.004;73.342;2022-12-05T07:06:20;251.40;;;105.78;;
69736;SDS011;64476;55.004;73.342;2022-12-05T07:09:22;273.38;;;103.70;;
69736;SDS011;64476;55.004;73.342;2022-12-05T07:12:55;261.55;;;98.82;;
69736;SDS011;64476;55.004;73.342;2022-12-05T07:16:04;233.58;;;96.10;;
69736;SDS011;64476;55.004;73.342;2022-12-05T07:19:40;202.27;;;81.50;;
69736;SDS011;64476;55.004;73.342;2022-12-05T07:22:43;202.18;;;78.75;;
69736;SDS011;64476;55.004;73.342;2022-12-05T07:25:46;179.48;;;77.50;;
69736;SDS011;64476;55.004;73.342;2022-12-05T07:28:58;183.55;;;77.60;;
69736;SDS011;64476;55.004;73.342;2022-12-05T07:31:59;204.80;;;87.90;;
69736;SDS011;64476;55.004;73.342;2022-12-05T07:35:02;194.15;;;83.43;;
69736;SDS011;64476;55.004;73.342;2022-12-05T07:38:08;190.57;;;83.68;;
69736;SDS011;64476;55.004;73.342;2022-12-05T07:45:06;220.55;;;89.05;;
69736;SDS011;64476;55.004;73.342;2022-12-05T07:51:45;240.10;;;93.00;;
69736;SDS011;64476;55.004;73.342;2022-12-05T07:54:51;209.07;;;88.95;;
69736;SDS011;64476;55.004;73.342;2022-12-05T07:57:52;197.32;;;81.35;;
69736;SDS011;64476;55.004;73.342;2022-12-05T08:01:24;179.18;;;81.53;;
69736;SDS011;64476;55.004;73.342;2022-12-05T08:04:27;203.18;;;87.40;;
69736;SDS011;64476;55.004;73.342;2022-12-05T08:07:29;201.63;;;88.63;;
69736;SDS011;64476;55.004;73.342;2022-12-05T08:10:30;200.65;;;87.55;;
69736;SDS011;64476;55.004;73.342;2022-12-05T08:13:44;194.95;;;88.00;;
69736;SDS011;64476;55.004;73.342;2022-12-05T08:16:56;221.13;;;92.70;;
69736;SDS011;64476;55.004;73.342;2022-12-05T08:19:57;217.50;;;92.80;;
69736;SDS011;64476;55.004;73.342;2022-12-05T08:22:59;230.85;;;93.45;;
69736;SDS011;64476;55.004;73.342;2022-12-05T08:26:07;208.30;;;94.38;;
69736;SDS011;64476;55.004;73.342;2022-12-05T08:29:12;238.55;;;89.80;;
69736;SDS011;64476;55.004;73.342;2022-12-05T08:32:15;210.73;;;90.63;;
69736;SDS011;64476;55.004;73.342;2022-12-05T08:35:16;240.55;;;93.07;;
69736;SDS011;64476;55.004;73.342;2022-12-05T08:38:18;195.55;;;91.10;;
69736;SDS011;64476;55.004;73.342;2022-12-05T08:41:27;215.82;;;88.55;;
69736;SDS011;64476;55.004;73.342;2022-12-05T08:44:31;209.52;;;91.05;;
69736;SDS011;64476;55.004;73.342;2022-12-05T08:47:36;254.63;;;91.28;;
69736;SDS011;64476;55.004;73.342;2022-12-05T08:50:38;221.68;;;89.38;;
69736;SDS011;64476;55.004;73.342;2022-12-05T08:57:22;259.20;;;91.57;;
69736;SDS011;64476;55.004;73.342;2022-12-05T09:00:23;211.10;;;89.10;;
69736;SDS011;64476;55.004;73.342;2022-12-05T09:03:35;212.05;;;89.50;;
69736;SDS011;64476;55.004;73.342;2022-12-05T09:06:48;229.30;;;92.88;;
69736;SDS011;64476;55.004;73.342;2022-12-05T09:09:51;228.00;;;93.13;;
69736;SDS011;64476;55.004;73.342;2022-12-05T09:12:55;222.55;;;93.15;;
69736;SDS011;64476;55.004;73.342;2022-12-05T09:16:07;238.55;;;94.95;;
69736;SDS011;64476;55.004;73.342;2022-12-05T09:19:20;240.55;;;101.55;;
69736;SDS011;64476;55.004;73.342;2022-12-05T09:22:33;238.98;;;97.15;;
69736;SDS011;64476;55.004;73.342;2022-12-05T09:25:36;238.25;;;100.20;;
69736;SDS011;64476;55.004;73.342;2022-12-05T09:28:42;264.35;;;112.03;;
69736;SDS011;64476;55.004;73.342;2022-12-05T09:31:51;268.35;;;118.30;;
69736;SDS011;64476;55.004;73.342;2022-12-05T09:34:55;273.80;;;115.72;;
69736;SDS011;64476;55.004;73.342;2022-12-05T09:38:06;260.73;;;108.88;;
69736;SDS011;64476;55.004;73.342;2022-12-05T09:41:31;230.43;;;101.73;;
69736;SDS011;64476;55.004;73.342;2022-12-05T09:49:04;196.52;;;85.82;;
69736;SDS011;64476;55.004;73.342;2022-12-05T09:52:09;208.93;;;85.05;;
69736;SDS011;64476;55.004;73.342;2022-12-05T09:58:57;204.38;;;78.97;;
69736;SDS011;64476;55.004;73.342;2022-12-05T10:16:12;177.90;;;72.70;;
69736;SDS011;64476;55.004;73.342;2022-12-05T10:19:21;181.13;;;70.07;;
69736;SDS011;64476;55.004;73.342;2022-12-05T10:22:53;145.38;;;65.03;;
69736;SDS011;64476;55.004;73.342;2022-12-05T10:26:04;154.18;;;62.65;;
69736;SDS011;64476;55.004;73.342;2022-12-05T10:35:34;205.68;;;75.78;;
69736;SDS011;64476;55.004;73.342;2022-12-05T10:38:38;181.27;;;66.00;;
69736;SDS011;64476;55.004;73.342;2022-12-05T10:41:43;163.98;;;61.13;;
69736;SDS011;64476;55.004;73.342;2022-12-05T10:44:58;135.60;;;52.58;;
69736;SDS011;64476;55.004;73.342;2022-12-05T10:48:04;118.78;;;46.17;;
69736;SDS011;64476;55.004;73.342;2022-12-05T10:51:13;138.85;;;51.75;;
69736;SDS011;64476;55.004;73.342;2022-12-05T10:58:06;144.38;;;52.65;;
69736;SDS011;64476;55.004;73.342;2022-12-05T11:01:28;138.65;;;52.47;;
69736;SDS011;64476;55.004;73.342;2022-12-05T11:04:31;105.40;;;45.75;;
69736;SDS011;64476;55.004;73.342;2022-12-05T11:07:55;107.80;;;44.92;;
69736;SDS011;64476;55.004;73.342;2022-12-05T11:11:04;124.85;;;45.95;;
69736;SDS011;64476;55.004;73.342;2022-12-05T11:14:41;129.18;;;50.53;;
69736;SDS011;64476;55.004;73.342;2022-12-05T11:17:46;133.13;;;45.50;;
69736;SDS011;64476;55.004;73.342;2022-12-05T11:20:49;127.30;;;50.80;;
69736;SDS011;64476;55.004;73.342;2022-12-05T11:24:19;123.55;;;52.10;;
69736;SDS011;64476;55.004;73.342;2022-12-05T11:28:28;162.45;;;61.60;;
69736;SDS011;64476;55.004;73.342;2022-12-05T11:31:35;168.68;;;61.22;;
69736;SDS011;64476;55.004;73.342;2022-12-05T11:34:41;158.55;;;62.92;;
69736;SDS011;64476;55.004;73.342;2022-12-05T11:37:59;171.88;;;66.50;;
69736;SDS011;64476;55.004;73.342;2022-12-05T11:52:05;175.18;;;66.15;;
69736;SDS011;64476;55.004;73.342;2022-12-05T11:59:18;186.15;;;71.13;;
69736;SDS011;64476;55.004;73.342;2022-12-05T12:13:27;117.25;;;46.25;;
69736;SDS011;64476;55.004;73.342;2022-12-05T12:41:44;89.10;;;35.10;;
69736;SDS011;64476;55.004;73.342;2022-12-05T12:51:52;107.97;;;42.58;;
69736;SDS011;64476;55.004;73.342;2022-12-05T13:05:53;167.52;;;58.20;;
69736;SDS011;64476;55.004;73.342;2022-12-05T13:09:40;185.50;;;66.10;;
69736;SDS011;64476;55.004;73.342;2022-12-05T13:12:49;168.43;;;67.07;;
69736;SDS011;64476;55.004;73.342;2022-12-05T13:15:54;145.18;;;60.88;;
69736;SDS011;64476;55.004;73.342;2022-12-05T13:19:04;142.00;;;57.55;;
69736;SDS011;64476;55.004;73.342;2022-12-05T13:22:38;167.15;;;64.78;;
69736;SDS011;64476;55.004;73.342;2022-12-05T13:25:40;163.75;;;59.72;;
69736;SDS011;64476;55.004;73.342;2022-12-05T13:28:54;186.98;;;64.22;;
69736;SDS011;64476;55.004;73.342;2022-12-05T13:31:59;208.88;;;82.30;;
69736;SDS011;64476;55.004;73.342;2022-12-05T13:38:18;304.48;;;125.47;;
69736;SDS011;64476;55.004;73.342;2022-12-05T13:41:52;281.42;;;110.63;;
69736;SDS011;64476;55.004;73.342;2022-12-05T13:45:41;377.30;;;153.45;;
69736;SDS011;64476;55.004;73.342;2022-12-05T13:49:01;439.52;;;184.75;;
69736;SDS011;64476;55.004;73.342;2022-12-05T13:52:55;283.93;;;105.57;;
69736;SDS011;64476;55.004;73.342;2022-12-05T14:09:50;229.65;;;80.80;;
69736;SDS011;64476;55.004;73.342;2022-12-05T14:12:55;290.02;;;115.25;;
69736;SDS011;64476;55.004;73.342;2022-12-05T14:16:50;284.10;;;116.30;;
69736;SDS011;64476;55.004;73.342;2022-12-05T14:19:46;242.57;;;97.47;;
69736;SDS011;64476;55.004;73.342;2022-12-05T14:23:02;271.83;;;108.82;;
69736;SDS011;64476;55.004;73.342;2022-12-05T14:26:25;247.73;;;99.00;;
69736;SDS011;64476;55.004;73.342;2022-12-05T14:33:22;270.35;;;104.25;;
69736;SDS011;64476;55.004;73.342;2022-12-05T14:36:24;263.02;;;103.38;;
69736;SDS011;64476;55.004;73.342;2022-12-05T14:39:42;259.30;;;90.97;;
69736;SDS011;64476;55.004;73.342;2022-12-05T14:42:51;238.07;;;86.57;;
69736;SDS011;64476;55.004;73.342;2022-12-05T14:46:05;188.60;;;67.80;;
69736;SDS011;64476;55.004;73.342;2022-12-05T14:56:35;239.13;;;89.15;;
69736;SDS011;64476;55.004;73.342;2022-12-05T15:07:37;324.67;;;107.30;;
69736;SDS011;64476;55.004;73.342;2022-12-05T15:10:40;265.42;;;98.53;;
69736;SDS011;64476;55.004;73.342;2022-12-05T15:13:43;334.00;;;116.57;;
69736;SDS011;64476;55.004;73.342;2022-12-05T15:16:48;370.83;;;133.65;;
69736;SDS011;64476;55.004;73.342;2022-12-05T15:20:04;408.15;;;148.07;;
69736;SDS011;64476;55.004;73.342;2022-12-05T15:30:16;289.10;;;104.63;;
69736;SDS011;64476;55.004;73.342;2022-12-05T15:33:28;302.48;;;100.65;;
69736;SDS011;64476;55.004;73.342;2022-12-05T15:36:34;303.00;;;101.15;;
69736;SDS011;64476;55.004;73.342;2022-12-05T15:40:21;271.33;;;104.75;;
69736;SDS011;64476;55.004;73.342;2022-12-05T15:46:28;283.17;;;98.22;;
69736;SDS011;64476;55.004;73.342;2022-12-05T15:49:29;259.45;;;96.15;;
69736;SDS011;64476;55.004;73.342;2022-12-05T16:06:29;324.88;;;99.85;;
69736;SDS011;64476;55.004;73.342;2022-12-05T16:13:58;291.33;;;95.38;;
69736;SDS011;64476;55.004;73.342;2022-12-05T16:17:47;312.77;;;106.95;;
69736;SDS011;64476;55.004;73.342;2022-12-05T16:20:53;339.10;;;107.88;;
69736;SDS011;64476;55.004;73.342;2022-12-05T16:24:02;322.90;;;102.80;;
69736;SDS011;64476;55.004;73.342;2022-12-05T16:30:19;299.73;;;94.85;;
69736;SDS011;64476;55.004;73.342;2022-12-05T16:33:26;309.30;;;96.60;;
69736;SDS011;64476;55.004;73.342;2022-12-05T16:36:29;311.80;;;99.90;;
69736;SDS011;64476;55.004;73.342;2022-12-05T16:39:33;318.83;;;104.30;;
69736;SDS011;64476;55.004;73.342;2022-12-05T16:42:35;339.67;;;105.25;;
69736;SDS011;64476;55.004;73.342;2022-12-05T16:45:43;254.25;;;99.38;;
69736;SDS011;64476;55.004;73.342;2022-12-05T16:52:30;293.85;;;100.90;;
69736;SDS011;64476;55.004;73.342;2022-12-05T16:55:32;303.67;;;99.38;;
69736;SDS011;64476;55.004;73.342;2022-12-05T16:58:47;306.90;;;98.93;;
69736;SDS011;64476;55.004;73.342;2022-12-05T17:01:52;292.63;;;94.75;;
69736;SDS011;64476;55.004;73.342;2022-12-05T17:04:54;277.48;;;93.07;;
69736;SDS011;64476;55.004;73.342;2022-12-05T17:08:04;282.15;;;98.80;;
69736;SDS011;64476;55.004;73.342;2022-12-05T17:11:17;276.15;;;92.03;;
69736;SDS011;64476;55.004;73.342;2022-12-05T17:14:22;261.92;;;83.03;;
69736;SDS011;64476;55.004;73.342;2022-12-05T17:17:30;248.88;;;90.38;;
69736;SDS011;64476;55.004;73.342;2022-12-05T17:20:42;281.40;;;92.80;;
69736;SDS011;64476;55.004;73.342;2022-12-05T17:23:46;279.35;;;92.45;;
69736;SDS011;64476;55.004;73.342;2022-12-05T17:26:48;294.48;;;99.90;;
69736;SDS011;64476;55.004;73.342;2022-12-05T17:29:51;332.25;;;120.25;;
69736;SDS011;64476;55.004;73.342;2022-12-05T17:32:56;367.95;;;124.18;;
69736;SDS011;64476;55.004;73.342;2022-12-05T17:36:03;340.78;;;118.76;;
69736;SDS011;64476;55.004;73.342;2022-12-05T17:39:05;321.90;;;111.03;;
69736;SDS011;64476;55.004;73.342;2022-12-05T17:42:18;301.00;;;108.05;;
69736;SDS011;64476;55.004;73.342;2022-12-05T17:45:23;318.48;;;107.82;;
69736;SDS011;64476;55.004;73.342;2022-12-05T17:48:35;299.55;;;104.32;;
69736;SDS011;64476;55.004;73.342;2022-12-05T17:51:42;279.50;;;98.97;;
69736;SDS011;64476;55.004;73.342;2022-12-05T17:54:44;289.52;;;98.70;;
69736;SDS011;64476;55.004;73.342;2022-12-05T17:57:46;256.88;;;92.18;;
69736;SDS011;64476;55.004;73.342;2022-12-05T18:01:20;258.52;;;87.57;;
69736;SDS011;64476;55.004;73.342;2022-12-05T18:04:22;269.00;;;89.33;;
69736;SDS011;64476;55.004;73.342;2022-12-05T18:07:24;240.73;;;88.43;;
69736;SDS011;64476;55.004;73.342;2022-12-05T18:10:25;241.00;;;87.78;;
69736;SDS011;64476;55.004;73.342;2022-12-05T18:13:27;265.33;;;87.78;;
69736;SDS011;64476;55.004;73.342;2022-12-05T18:16:28;241.55;;;84.70;;
69736;SDS011;64476;55.004;73.342;2022-12-05T18:19:35;259.98;;;85.05;;
69736;SDS011;64476;55.004;73.342;2022-12-05T18:22:43;249.52;;;86.93;;
69736;SDS011;64476;55.004;73.342;2022-12-05T18:25:54;280.58;;;92.95;;
69736;SDS011;64476;55.004;73.342;2022-12-05T18:28:57;256.33;;;91.25;;
69736;SDS011;64476;55.004;73.342;2022-12-05T18:31:59;258.42;;;88.40;;
69736;SDS011;64476;55.004;73.342;2022-12-05T18:35:02;264.08;;;87.97;;
69736;SDS011;64476;55.004;73.342;2022-12-05T18:38:38;226.88;;;85.65;;
69736;SDS011;64476;55.004;73.342;2022-12-05T18:41:40;240.23;;;82.27;;
69736;SDS011;64476;55.004;73.342;2022-12-05T18:45:15;227.32;;;81.47;;
69736;SDS011;64476;55.004;73.342;2022-12-05T18:48:23;233.88;;;79.68;;
69736;SDS011;64476;55.004;73.342;2022-12-05T18:51:35;284.58;;;87.93;;
69736;SDS011;64476;55.004;73.342;2022-12-05T18:54:36;262.05;;;84.28;;
69736;SDS011;64476;55.004;73.342;2022-12-05T18:57:43;260.55;;;87.25;;
69736;SDS011;64476;55.004;73.342;2022-12-05T19:00:45;257.17;;;86.18;;
69736;SDS011;64476;55.004;73.342;2022-12-05T19:04:19;225.65;;;78.25;;
69736;SDS011;64476;55.004;73.342;2022-12-05T19:07:22;216.15;;;80.72;;
69736;SDS011;64476;55.004;73.342;2022-12-05T19:10:34;242.43;;;83.13;;
69736;SDS011;64476;55.004;73.342;2022-12-05T19:13:45;228.32;;;80.35;;
69736;SDS011;64476;55.004;73.342;2022-12-05T19:16:53;249.75;;;81.93;;
69736;SDS011;64476;55.004;73.342;2022-12-05T19:19:55;248.40;;;80.97;;
69736;SDS011;64476;55.004;73.342;2022-12-05T19:22:58;254.10;;;78.00;;
69736;SDS011;64476;55.004;73.342;2022-12-05T19:26:04;236.63;;;75.95;;
69736;SDS011;64476;55.004;73.342;2022-12-05T19:29:18;232.20;;;75.53;;
69736;SDS011;64476;55.004;73.342;2022-12-05T19:32:20;178.68;;;66.22;;
69736;SDS011;64476;55.004;73.342;2022-12-05T19:35:21;216.90;;;69.55;;
69736;SDS011;64476;55.004;73.342;2022-12-05T19:38:32;202.20;;;67.25;;
69736;SDS011;64476;55.004;73.342;2022-12-05T19:41:45;208.77;;;67.32;;
69736;SDS011;64476;55.004;73.342;2022-12-05T19:44:56;215.10;;;65.07;;
69736;SDS011;64476;55.004;73.342;2022-12-05T19:47:58;195.05;;;67.45;;
69736;SDS011;64476;55.004;73.342;2022-12-05T19:51:04;168.85;;;67.35;;
69736;SDS011;64476;55.004;73.342;2022-12-05T19:54:12;186.75;;;64.60;;
69736;SDS011;64476;55.004;73.342;2022-12-05T19:57:17;189.82;;;66.60;;
69736;SDS011;64476;55.004;73.342;2022-12-05T20:00:19;191.20;;;66.10;;
69736;SDS011;64476;55.004;73.342;2022-12-05T20:03:21;194.45;;;69.30;;
69736;SDS011;64476;55.004;73.342;2022-12-05T20:06:36;204.25;;;73.43;;
69736;SDS011;64476;55.004;73.342;2022-12-05T20:09:49;199.25;;;72.90;;
69736;SDS011;64476;55.004;73.342;2022-12-05T20:12:51;190.57;;;67.53;;
69736;SDS011;64476;55.004;73.342;2022-12-05T20:16:04;212.57;;;73.57;;
69736;SDS011;64476;55.004;73.342;2022-12-05T20:19:11;207.07;;;72.75;;
69736;SDS011;64476;55.004;73.342;2022-12-05T20:22:13;201.90;;;69.70;;
69736;SDS011;64476;55.004;73.342;2022-12-05T20:25:15;192.68;;;67.03;;
69736;SDS011;64476;55.004;73.342;2022-12-05T20:28:16;190.50;;;67.93;;
69736;SDS011;64476;55.004;73.342;2022-12-05T20:31:23;184.43;;;65.10;;
69736;SDS011;64476;55.004;73.342;2022-12-05T20:34:30;196.88;;;67.75;;
69736;SDS011;64476;55.004;73.342;2022-12-05T20:37:32;182.70;;;67.22;;
69736;SDS011;64476;55.004;73.342;2022-12-05T20:40:36;167.18;;;60.65;;
69736;SDS011;64476;55.004;73.342;2022-12-05T20:43:43;182.65;;;64.15;;
69736;SDS011;64476;55.004;73.342;2022-12-05T20:46:49;176.97;;;66.57;;
69736;SDS011;64476;55.004;73.342;2022-12-05T20:49:53;195.30;;;68.18;;
69736;SDS011;64476;55.004;73.342;2022-12-05T20:52:56;189.95;;;66.45;;
69736;SDS011;64476;55.004;73.342;2022-12-05T20:56:11;201.04;;;72.36;;
69736;SDS011;64476;55.004;73.342;2022-12-05T20:59:16;204.27;;;71.50;;
69736;SDS011;64476;55.004;73.342;2022-12-05T21:02:18;216.18;;;72.18;;
69736;SDS011;64476;55.004;73.342;2022-12-05T21:05:20;200.80;;;68.15;;
69736;SDS011;64476;55.004;73.342;2022-12-05T21:11:49;176.82;;;62.88;;
69736;SDS011;64476;55.004;73.342;2022-12-05T21:14:51;175.38;;;65.95;;
69736;SDS011;64476;55.004;73.342;2022-12-05T21:17:53;178.30;;;66.30;;
69736;SDS011;64476;55.004;73.342;2022-12-05T21:21:04;206.31;;;67.60;;
69736;SDS011;64476;55.004;73.342;2022-12-05T21:24:11;198.55;;;68.30;;
69736;SDS011;64476;55.004;73.342;2022-12-05T21:27:13;204.73;;;70.50;;
69736;SDS011;64476;55.004;73.342;2022-12-05T21:30:14;192.02;;;67.75;;
69736;SDS011;64476;55.004;73.342;2022-12-05T21:33:26;175.10;;;61.30;;
69736;SDS011;64476;55.004;73.342;2022-12-05T21:36:28;164.02;;;59.30;;
69736;SDS011;64476;55.004;73.342;2022-12-05T21:39:38;143.10;;;51.53;;
69736;SDS011;64476;55.004;73.342;2022-12-05T21:43:24;169.70;;;52.20;;
69736;SDS011;64476;55.004;73.342;2022-12-05T21:46:37;155.77;;;54.35;;
69736;SDS011;64476;55.004;73.342;2022-12-05T21:49:44;156.48;;;56.63;;
69736;SDS011;64476;55.004;73.342;2022-12-05T21:52:45;166.10;;;57.38;;